sensor_id;sensor_type;location;lat;lon;timestamp;temperature;humidity
74792;SHT30;63319;46.046;17.802;2022-11-11T00:00:03;20.68;61.92
74792;SHT30;63319;46.046;17.802;2022-11-11T00:03:24;20.69;62.12
74792;SHT30;63319;46.046;17.802;2022-11-11T00:06:46;20.67;61.84
74792;SHT30;63319;46.046;17.802;2022-11-11T00:10:08;20.68;61.99
74792;SHT30;63319;46.046;17.802;2022-11-11T00:13:31;20.68;61.63
74792;SHT30;63319;46.046;17.802;2022-11-11T00:16:53;20.68;62.05
74792;SHT30;63319;46.046;17.802;2022-11-11T00:20:33;20.65;61.65
74792;SHT30;63319;46.046;17.802;2022-11-11T00:24:23;20.65;62.01
74792;SHT30;63319;46.046;17.802;2022-11-11T00:28:03;20.67;61.80
74792;SHT30;63319;46.046;17.802;2022-11-11T00:31:24;20.64;62.02
74792;SHT30;63319;46.046;17.802;2022-11-11T00:34:45;20.64;61.78
74792;SHT30;63319;46.046;17.802;2022-11-11T00:38:26;20.61;62.05
74792;SHT30;63319;46.046;17.802;2022-11-11T00:42:06;20.61;61.63
74792;SHT30;63319;46.046;17.802;2022-11-11T00:45:27;20.60;61.93
74792;SHT30;63319;46.046;17.802;2022-11-11T00:48:48;20.60;61.74
74792;SHT30;63319;46.046;17.802;2022-11-11T00:52:28;20.60;61.92
74792;SHT30;63319;46.046;17.802;2022-11-11T00:55:50;20.60;61.84
74792;SHT30;63319;46.046;17.802;2022-11-11T00:59:11;20.57;61.73
74792;SHT30;63319;46.046;17.802;2022-11-11T01:02:32;20.57;61.87
74792;SHT30;63319;46.046;17.802;2022-11-11T01:05:59;20.55;61.88
74792;SHT30;63319;46.046;17.802;2022-11-11T01:09:20;20.58;61.76
74792;SHT30;63319;46.046;17.802;2022-11-11T01:12:41;20.60;61.95
74792;SHT30;63319;46.046;17.802;2022-11-11T01:16:08;20.55;61.60
74792;SHT30;63319;46.046;17.802;2022-11-11T01:19:31;20.54;61.40
74792;SHT30;63319;46.046;17.802;2022-11-11T01:22:52;20.54;61.74
74792;SHT30;63319;46.046;17.802;2022-11-11T01:29:35;20.52;61.31
74792;SHT30;63319;46.046;17.802;2022-11-11T01:32:56;20.52;61.44
74792;SHT30;63319;46.046;17.802;2022-11-11T01:36:21;20.51;61.75
74792;SHT30;63319;46.046;17.802;2022-11-11T01:39:42;20.51;61.50
74792;SHT30;63319;46.046;17.802;2022-11-11T01:50:00;20.54;61.22
74792;SHT30;63319;46.046;17.802;2022-11-11T01:53:23;20.54;61.48
74792;SHT30;63319;46.046;17.802;2022-11-11T01:56:49;20.51;61.52
74792;SHT30;63319;46.046;17.802;2022-11-11T02:00:15;20.52;61.14
74792;SHT30;63319;46.046;17.802;2022-11-11T02:03:39;20.52;61.65
74792;SHT30;63319;46.046;17.802;2022-11-11T02:07:04;20.50;61.10
74792;SHT30;63319;46.046;17.802;2022-11-11T02:10:29;20.48;61.65
74792;SHT30;63319;46.046;17.802;2022-11-11T02:13:52;20.48;61.56
74792;SHT30;63319;46.046;17.802;2022-11-11T02:17:32;20.50;61.24
74792;SHT30;63319;46.046;17.802;2022-11-11T02:20:53;20.50;61.52
74792;SHT30;63319;46.046;17.802;2022-11-11T02:24:16;20.48;61.26
74792;SHT30;63319;46.046;17.802;2022-11-11T02:27:40;20.50;61.76
74792;SHT30;63319;46.046;17.802;2022-11-11T02:31:02;20.48;61.35
74792;SHT30;63319;46.046;17.802;2022-11-11T02:34:31;20.52;61.48
74792;SHT30;63319;46.046;17.802;2022-11-11T02:37:52;20.48;61.51
74792;SHT30;63319;46.046;17.802;2022-11-11T02:41:14;20.50;61.70
74792;SHT30;63319;46.046;17.802;2022-11-11T02:44:54;20.51;61.56
74792;SHT30;63319;46.046;17.802;2022-11-11T02:48:19;20.51;61.18
74792;SHT30;63319;46.046;17.802;2022-11-11T02:51:40;20.50;60.93
74792;SHT30;63319;46.046;17.802;2022-11-11T02:55:02;20.47;61.32
74792;SHT30;63319;46.046;17.802;2022-11-11T02:58:24;20.48;61.52
74792;SHT30;63319;46.046;17.802;2022-11-11T03:01:45;20.48;61.35
74792;SHT30;63319;46.046;17.802;2022-11-11T03:05:07;20.48;61.30
74792;SHT30;63319;46.046;17.802;2022-11-11T03:08:28;20.45;61.41
74792;SHT30;63319;46.046;17.802;2022-11-11T03:11:50;20.45;61.25
74792;SHT30;63319;46.046;17.802;2022-11-11T03:15:11;20.45;61.33
74792;SHT30;63319;46.046;17.802;2022-11-11T03:18:33;20.47;61.18
74792;SHT30;63319;46.046;17.802;2022-11-11T03:21:54;20.44;61.18
74792;SHT30;63319;46.046;17.802;2022-11-11T03:25:40;20.45;61.12
74792;SHT30;63319;46.046;17.802;2022-11-11T03:29:02;20.45;61.33
74792;SHT30;63319;46.046;17.802;2022-11-11T03:32:24;20.45;61.48
74792;SHT30;63319;46.046;17.802;2022-11-11T03:35:46;20.44;61.29
74792;SHT30;63319;46.046;17.802;2022-11-11T03:39:07;20.45;61.14
74792;SHT30;63319;46.046;17.802;2022-11-11T03:42:28;20.43;61.40
74792;SHT30;63319;46.046;17.802;2022-11-11T03:46:08;20.40;61.17
74792;SHT30;63319;46.046;17.802;2022-11-11T03:49:30;20.41;61.47
74792;SHT30;63319;46.046;17.802;2022-11-11T03:52:51;20.40;61.24
74792;SHT30;63319;46.046;17.802;2022-11-11T03:56:12;20.40;61.54
74792;SHT30;63319;46.046;17.802;2022-11-11T03:59:34;20.40;61.49
74792;SHT30;63319;46.046;17.802;2022-11-11T04:06:45;20.37;61.67
74792;SHT30;63319;46.046;17.802;2022-11-11T04:10:27;20.36;61.51
74792;SHT30;63319;46.046;17.802;2022-11-11T04:13:50;20.40;61.33
74792;SHT30;63319;46.046;17.802;2022-11-11T04:17:30;20.40;61.30
74792;SHT30;63319;46.046;17.802;2022-11-11T04:20:52;20.36;61.41
74792;SHT30;63319;46.046;17.802;2022-11-11T04:24:32;20.36;61.70
74792;SHT30;63319;46.046;17.802;2022-11-11T04:28:12;20.36;61.43
74792;SHT30;63319;46.046;17.802;2022-11-11T04:31:51;20.37;62.44
74792;SHT30;63319;46.046;17.802;2022-11-11T04:35:32;20.37;62.49
74792;SHT30;63319;46.046;17.802;2022-11-11T04:38:53;20.41;62.52
74792;SHT30;63319;46.046;17.802;2022-11-11T04:42:33;20.43;62.56
74792;SHT30;63319;46.046;17.802;2022-11-11T04:45:58;20.45;62.54
74792;SHT30;63319;46.046;17.802;2022-11-11T04:49:20;20.43;62.56
74792;SHT30;63319;46.046;17.802;2022-11-11T04:52:42;20.47;62.55
74792;SHT30;63319;46.046;17.802;2022-11-11T04:56:03;20.45;62.55
74792;SHT30;63319;46.046;17.802;2022-11-11T04:59:43;20.47;62.53
74792;SHT30;63319;46.046;17.802;2022-11-11T05:03:05;20.50;62.50
74792;SHT30;63319;46.046;17.802;2022-11-11T05:06:36;20.48;62.50
74792;SHT30;63319;46.046;17.802;2022-11-11T05:10:19;20.47;62.52
74792;SHT30;63319;46.046;17.802;2022-11-11T05:13:41;20.50;62.52
74792;SHT30;63319;46.046;17.802;2022-11-11T05:17:21;20.51;62.45
74792;SHT30;63319;46.046;17.802;2022-11-11T05:21:01;20.51;62.44
74792;SHT30;63319;46.046;17.802;2022-11-11T05:24:41;20.52;62.46
74792;SHT30;63319;46.046;17.802;2022-11-11T05:28:21;20.52;62.34
74792;SHT30;63319;46.046;17.802;2022-11-11T05:31:42;20.52;62.34
74792;SHT30;63319;46.046;17.802;2022-11-11T05:35:11;20.54;62.28
74792;SHT30;63319;46.046;17.802;2022-11-11T05:38:32;20.55;62.27
74792;SHT30;63319;46.046;17.802;2022-11-11T05:41:53;20.57;62.20
74792;SHT30;63319;46.046;17.802;2022-11-11T05:45:15;20.58;62.12
74792;SHT30;63319;46.046;17.802;2022-11-11T05:48:36;20.57;62.12
74792;SHT30;63319;46.046;17.802;2022-11-11T05:52:18;20.55;61.76
74792;SHT30;63319;46.046;17.802;2022-11-11T05:55:39;20.55;61.64
74792;SHT30;63319;46.046;17.802;2022-11-11T05:59:00;20.52;61.37
74792;SHT30;63319;46.046;17.802;2022-11-11T06:02:21;20.54;61.13
74792;SHT30;63319;46.046;17.802;2022-11-11T06:05:43;20.54;62.04
74792;SHT30;63319;46.046;17.802;2022-11-11T06:09:05;20.52;61.65
74792;SHT30;63319;46.046;17.802;2022-11-11T06:12:26;20.50;61.86
74792;SHT30;63319;46.046;17.802;2022-11-11T06:16:08;20.51;61.85
74792;SHT30;63319;46.046;17.802;2022-11-11T06:19:29;20.52;61.79
74792;SHT30;63319;46.046;17.802;2022-11-11T06:22:50;20.51;62.10
74792;SHT30;63319;46.046;17.802;2022-11-11T06:26:17;20.54;61.89
74792;SHT30;63319;46.046;17.802;2022-11-11T06:29:39;20.57;62.11
74792;SHT30;63319;46.046;17.802;2022-11-11T06:33:00;20.55;61.70
74792;SHT30;63319;46.046;17.802;2022-11-11T06:36:22;20.55;62.04
74792;SHT30;63319;46.046;17.802;2022-11-11T06:39:43;20.60;62.28
74792;SHT30;63319;46.046;17.802;2022-11-11T06:43:04;20.61;62.36
74792;SHT30;63319;46.046;17.802;2022-11-11T06:46:26;20.64;62.32
74792;SHT30;63319;46.046;17.802;2022-11-11T06:49:47;20.65;62.14
74792;SHT30;63319;46.046;17.802;2022-11-11T06:53:11;20.69;62.08
74792;SHT30;63319;46.046;17.802;2022-11-11T06:56:33;20.72;61.74
74792;SHT30;63319;46.046;17.802;2022-11-11T06:59:54;20.79;61.69
74792;SHT30;63319;46.046;17.802;2022-11-11T07:03:20;20.87;61.46
74792;SHT30;63319;46.046;17.802;2022-11-11T07:06:45;20.98;61.08
74792;SHT30;63319;46.046;17.802;2022-11-11T07:10:08;21.08;60.94
74792;SHT30;63319;46.046;17.802;2022-11-11T07:13:30;21.18;60.58
74792;SHT30;63319;46.046;17.802;2022-11-11T07:16:52;21.30;60.37
74792;SHT30;63319;46.046;17.802;2022-11-11T07:20:14;21.43;60.07
74792;SHT30;63319;46.046;17.802;2022-11-11T07:23:36;21.56;59.82
74792;SHT30;63319;46.046;17.802;2022-11-11T07:26:57;21.68;59.49
74792;SHT30;63319;46.046;17.802;2022-11-11T07:30:19;21.83;59.17
74792;SHT30;63319;46.046;17.802;2022-11-11T07:33:40;21.92;59.05
74792;SHT30;63319;46.046;17.802;2022-11-11T07:37:02;22.04;58.82
74792;SHT30;63319;46.046;17.802;2022-11-11T07:40:23;22.15;58.47
74792;SHT30;63319;46.046;17.802;2022-11-11T07:43:44;22.28;58.27
74792;SHT30;63319;46.046;17.802;2022-11-11T07:47:06;22.36;58.01
74792;SHT30;63319;46.046;17.802;2022-11-11T07:50:27;22.46;57.68
74792;SHT30;63319;46.046;17.802;2022-11-11T07:53:49;22.56;57.71
74792;SHT30;63319;46.046;17.802;2022-11-11T07:57:10;22.64;57.65
74792;SHT30;63319;46.046;17.802;2022-11-11T08:00:32;22.76;57.66
74792;SHT30;63319;46.046;17.802;2022-11-11T08:03:53;22.86;57.36
74792;SHT30;63319;46.046;17.802;2022-11-11T08:07:15;22.94;57.17
74792;SHT30;63319;46.046;17.802;2022-11-11T08:10:42;23.06;56.96
74792;SHT30;63319;46.046;17.802;2022-11-11T08:14:03;23.17;56.77
74792;SHT30;63319;46.046;17.802;2022-11-11T08:17:25;23.28;56.60
74792;SHT30;63319;46.046;17.802;2022-11-11T08:20:46;23.35;56.53
74792;SHT30;63319;46.046;17.802;2022-11-11T08:24:14;23.48;56.49
74792;SHT30;63319;46.046;17.802;2022-11-11T08:27:57;23.52;56.40
74792;SHT30;63319;46.046;17.802;2022-11-11T08:31:18;23.62;56.22
74792;SHT30;63319;46.046;17.802;2022-11-11T08:34:42;23.72;55.99
74792;SHT30;63319;46.046;17.802;2022-11-11T08:38:04;23.82;55.81
74792;SHT30;63319;46.046;17.802;2022-11-11T08:41:25;23.86;55.75
74792;SHT30;63319;46.046;17.802;2022-11-11T08:44:47;23.92;55.69
74792;SHT30;63319;46.046;17.802;2022-11-11T08:48:09;23.96;55.62
74792;SHT30;63319;46.046;17.802;2022-11-11T08:51:30;24.02;55.59
74792;SHT30;63319;46.046;17.802;2022-11-11T08:55:02;24.07;55.40
74792;SHT30;63319;46.046;17.802;2022-11-11T08:58:23;24.18;55.18
74792;SHT30;63319;46.046;17.802;2022-11-11T09:01:44;24.27;54.97
74792;SHT30;63319;46.046;17.802;2022-11-11T09:05:06;24.33;54.97
74792;SHT30;63319;46.046;17.802;2022-11-11T09:08:27;24.40;54.87
74792;SHT30;63319;46.046;17.802;2022-11-11T09:11:48;24.41;54.75
74792;SHT30;63319;46.046;17.802;2022-11-11T09:15:13;24.50;54.39
74792;SHT30;63319;46.046;17.802;2022-11-11T09:18:34;24.64;54.27
74792;SHT30;63319;46.046;17.802;2022-11-11T09:21:56;24.69;52.21
74792;SHT30;63319;46.046;17.802;2022-11-11T09:25:17;24.23;49.40
74792;SHT30;63319;46.046;17.802;2022-11-11T09:28:39;24.00;51.41
74792;SHT30;63319;46.046;17.802;2022-11-11T09:32:05;23.35;49.44
74792;SHT30;63319;46.046;17.802;2022-11-11T09:35:57;23.63;50.94
74792;SHT30;63319;46.046;17.802;2022-11-11T09:39:19;23.76;50.87
74792;SHT30;63319;46.046;17.802;2022-11-11T09:42:43;24.06;48.76
74792;SHT30;63319;46.046;17.802;2022-11-11T09:56:37;24.06;47.76
74792;SHT30;63319;46.046;17.802;2022-11-11T10:00:02;24.06;47.27
74792;SHT30;63319;46.046;17.802;2022-11-11T10:03:26;24.17;47.86
74792;SHT30;63319;46.046;17.802;2022-11-11T10:06:56;24.41;49.07
74792;SHT30;63319;46.046;17.802;2022-11-11T10:14:10;24.47;44.70
74792;SHT30;63319;46.046;17.802;2022-11-11T10:21:57;24.73;46.02
74792;SHT30;63319;46.046;17.802;2022-11-11T10:25:33;25.00;46.14
74792;SHT30;63319;46.046;17.802;2022-11-11T10:28:55;24.99;44.91
74792;SHT30;63319;46.046;17.802;2022-11-11T10:32:24;25.13;47.53
74792;SHT30;63319;46.046;17.802;2022-11-11T10:35:49;25.10;48.01
74792;SHT30;63319;46.046;17.802;2022-11-11T10:39:15;25.30;46.12
74792;SHT30;63319;46.046;17.802;2022-11-11T10:42:38;25.27;45.31
74792;SHT30;63319;46.046;17.802;2022-11-11T10:49:32;24.93;47.91
74792;SHT30;63319;46.046;17.802;2022-11-11T10:53:17;24.73;45.17
74792;SHT30;63319;46.046;17.802;2022-11-11T11:00:17;24.69;45.25
74792;SHT30;63319;46.046;17.802;2022-11-11T11:03:42;24.86;45.93
74792;SHT30;63319;46.046;17.802;2022-11-11T11:07:07;24.78;45.01
74792;SHT30;63319;46.046;17.802;2022-11-11T11:10:38;25.10;44.64
74792;SHT30;63319;46.046;17.802;2022-11-11T11:14:07;25.23;44.56
74792;SHT30;63319;46.046;17.802;2022-11-11T11:18:02;25.46;44.41
74792;SHT30;63319;46.046;17.802;2022-11-11T11:21:24;25.27;42.40
74792;SHT30;63319;46.046;17.802;2022-11-11T11:24:48;25.37;45.37
74792;SHT30;63319;46.046;17.802;2022-11-11T11:28:12;25.24;43.91
74792;SHT30;63319;46.046;17.802;2022-11-11T11:31:35;25.34;45.19
74792;SHT30;63319;46.046;17.802;2022-11-11T11:35:37;25.58;45.06
74792;SHT30;63319;46.046;17.802;2022-11-11T11:38:58;25.60;43.74
74792;SHT30;63319;46.046;17.802;2022-11-11T11:45:56;25.50;42.35
74792;SHT30;63319;46.046;17.802;2022-11-11T11:56:58;25.36;42.21
74792;SHT30;63319;46.046;17.802;2022-11-11T12:00:27;25.60;42.82
74792;SHT30;63319;46.046;17.802;2022-11-11T12:11:16;25.02;41.90
74792;SHT30;63319;46.046;17.802;2022-11-11T14:55:35;23.35;53.94
74792;SHT30;63319;46.046;17.802;2022-11-11T14:59:05;23.35;53.97
74792;SHT30;63319;46.046;17.802;2022-11-11T15:02:33;23.34;53.95
74792;SHT30;63319;46.046;17.802;2022-11-11T15:06:06;23.29;54.05
74792;SHT30;63319;46.046;17.802;2022-11-11T15:13:50;23.28;54.16
74792;SHT30;63319;46.046;17.802;2022-11-11T15:24:33;23.17;54.37
74792;SHT30;63319;46.046;17.802;2022-11-11T15:28:15;23.14;54.43
74792;SHT30;63319;46.046;17.802;2022-11-11T15:31:44;23.15;54.51
74792;SHT30;63319;46.046;17.802;2022-11-11T15:38:55;23.08;54.66
74792;SHT30;63319;46.046;17.802;2022-11-11T15:45:54;23.03;54.73
74792;SHT30;63319;46.046;17.802;2022-11-11T15:49:35;23.00;54.81
74792;SHT30;63319;46.046;17.802;2022-11-11T15:52:58;23.00;54.86
74792;SHT30;63319;46.046;17.802;2022-11-11T15:56:30;22.97;54.88
74792;SHT30;63319;46.046;17.802;2022-11-11T15:59:56;22.94;54.94
74792;SHT30;63319;46.046;17.802;2022-11-11T16:03:27;22.91;54.93
74792;SHT30;63319;46.046;17.802;2022-11-11T16:06:50;22.91;55.03
74792;SHT30;63319;46.046;17.802;2022-11-11T16:10:24;22.90;55.05
74792;SHT30;63319;46.046;17.802;2022-11-11T16:13:59;22.87;55.07
74792;SHT30;63319;46.046;17.802;2022-11-11T16:17:30;22.86;55.14
74792;SHT30;63319;46.046;17.802;2022-11-11T16:20:59;22.81;55.20
74792;SHT30;63319;46.046;17.802;2022-11-11T16:24:32;22.81;55.22
74792;SHT30;63319;46.046;17.802;2022-11-11T16:27:55;22.79;55.27
74792;SHT30;63319;46.046;17.802;2022-11-11T16:31:37;22.74;55.41
74792;SHT30;63319;46.046;17.802;2022-11-11T16:35:27;22.74;55.47
74792;SHT30;63319;46.046;17.802;2022-11-11T16:38:49;22.70;55.39
74792;SHT30;63319;46.046;17.802;2022-11-11T16:42:26;22.69;55.47
74792;SHT30;63319;46.046;17.802;2022-11-11T16:46:12;22.67;55.52
74792;SHT30;63319;46.046;17.802;2022-11-11T16:49:39;22.64;55.62
74792;SHT30;63319;46.046;17.802;2022-11-11T16:53:02;22.62;55.57
74792;SHT30;63319;46.046;17.802;2022-11-11T16:56:28;22.60;55.59
74792;SHT30;63319;46.046;17.802;2022-11-11T16:59:54;22.57;55.69
74792;SHT30;63319;46.046;17.802;2022-11-11T17:03:22;22.55;55.65
74792;SHT30;63319;46.046;17.802;2022-11-11T17:13:28;22.52;55.78
74792;SHT30;63319;46.046;17.802;2022-11-11T17:16:51;22.49;55.88
74792;SHT30;63319;46.046;17.802;2022-11-11T17:20:17;22.48;56.05
74792;SHT30;63319;46.046;17.802;2022-11-11T17:23:39;22.45;55.95
74792;SHT30;63319;46.046;17.802;2022-11-11T17:27:01;22.41;55.92
74792;SHT30;63319;46.046;17.802;2022-11-11T17:30:23;22.42;56.09
74792;SHT30;63319;46.046;17.802;2022-11-11T17:33:44;22.39;56.09
74792;SHT30;63319;46.046;17.802;2022-11-11T17:37:06;22.39;56.11
74792;SHT30;63319;46.046;17.802;2022-11-11T17:40:27;22.38;56.09
74792;SHT30;63319;46.046;17.802;2022-11-11T17:43:49;22.35;56.15
74792;SHT30;63319;46.046;17.802;2022-11-11T17:47:10;22.32;56.36
74792;SHT30;63319;46.046;17.802;2022-11-11T17:50:32;22.31;56.34
74792;SHT30;63319;46.046;17.802;2022-11-11T17:53:53;22.29;56.22
74792;SHT30;63319;46.046;17.802;2022-11-11T17:57:15;22.26;56.32
74792;SHT30;63319;46.046;17.802;2022-11-11T18:00:37;22.25;56.55
74792;SHT30;63319;46.046;17.802;2022-11-11T18:03:59;22.25;56.36
74792;SHT30;63319;46.046;17.802;2022-11-11T18:07:21;22.22;56.48
74792;SHT30;63319;46.046;17.802;2022-11-11T18:10:42;22.22;56.53
74792;SHT30;63319;46.046;17.802;2022-11-11T18:14:04;22.18;56.52
74792;SHT30;63319;46.046;17.802;2022-11-11T18:17:25;22.18;56.54
74792;SHT30;63319;46.046;17.802;2022-11-11T18:20:47;22.16;56.57
74792;SHT30;63319;46.046;17.802;2022-11-11T18:24:09;22.12;56.66
74792;SHT30;63319;46.046;17.802;2022-11-11T18:27:32;22.11;56.56
74792;SHT30;63319;46.046;17.802;2022-11-11T18:31:09;22.09;56.64
74792;SHT30;63319;46.046;17.802;2022-11-11T18:34:31;22.08;56.76
74792;SHT30;63319;46.046;17.802;2022-11-11T18:37:52;22.06;56.84
74792;SHT30;63319;46.046;17.802;2022-11-11T18:41:16;22.04;56.73
74792;SHT30;63319;46.046;17.802;2022-11-11T18:44:38;22.05;56.79
74792;SHT30;63319;46.046;17.802;2022-11-11T18:47:59;22.04;56.80
74792;SHT30;63319;46.046;17.802;2022-11-11T18:51:21;22.01;56.76
74792;SHT30;63319;46.046;17.802;2022-11-11T18:54:43;22.00;56.84
74792;SHT30;63319;46.046;17.802;2022-11-11T18:58:05;22.00;56.89
74792;SHT30;63319;46.046;17.802;2022-11-11T19:01:29;21.98;57.08
74792;SHT30;63319;46.046;17.802;2022-11-11T19:04:51;21.95;56.97
74792;SHT30;63319;46.046;17.802;2022-11-11T19:08:14;21.94;56.83
74792;SHT30;63319;46.046;17.802;2022-11-11T19:11:40;21.92;56.78
74792;SHT30;63319;46.046;17.802;2022-11-11T19:15:03;21.91;57.08
74792;SHT30;63319;46.046;17.802;2022-11-11T19:18:24;21.91;57.05
74792;SHT30;63319;46.046;17.802;2022-11-11T19:21:46;21.88;57.11
74792;SHT30;63319;46.046;17.802;2022-11-11T19:25:07;21.88;56.91
74792;SHT30;63319;46.046;17.802;2022-11-11T19:28:30;21.84;56.80
74792;SHT30;63319;46.046;17.802;2022-11-11T19:31:51;21.83;57.10
74792;SHT30;63319;46.046;17.802;2022-11-11T19:35:13;21.84;56.97
74792;SHT30;63319;46.046;17.802;2022-11-11T19:38:35;21.83;57.15
74792;SHT30;63319;46.046;17.802;2022-11-11T19:41:57;21.83;57.29
74792;SHT30;63319;46.046;17.802;2022-11-11T19:45:19;21.81;57.15
74792;SHT30;63319;46.046;17.802;2022-11-11T19:48:41;21.80;57.08
74792;SHT30;63319;46.046;17.802;2022-11-11T19:52:03;21.80;56.92
74792;SHT30;63319;46.046;17.802;2022-11-11T19:55:25;21.78;57.01
74792;SHT30;63319;46.046;17.802;2022-11-11T19:58:47;21.80;57.06
74792;SHT30;63319;46.046;17.802;2022-11-11T20:02:09;21.77;56.92
74792;SHT30;63319;46.046;17.802;2022-11-11T20:05:35;21.75;56.82
74792;SHT30;63319;46.046;17.802;2022-11-11T20:09:00;21.73;57.07
74792;SHT30;63319;46.046;17.802;2022-11-11T20:12:21;21.74;57.05
74792;SHT30;63319;46.046;17.802;2022-11-11T20:15:43;21.74;56.72
74792;SHT30;63319;46.046;17.802;2022-11-11T20:19:04;21.70;56.94
74792;SHT30;63319;46.046;17.802;2022-11-11T20:22:26;21.67;56.73
74792;SHT30;63319;46.046;17.802;2022-11-11T20:25:47;21.67;56.92
74792;SHT30;63319;46.046;17.802;2022-11-11T20:29:09;21.65;57.24
74792;SHT30;63319;46.046;17.802;2022-11-11T20:32:30;21.63;56.82
74792;SHT30;63319;46.046;17.802;2022-11-11T20:35:52;21.64;57.44
74792;SHT30;63319;46.046;17.802;2022-11-11T20:39:13;21.61;57.01
74792;SHT30;63319;46.046;17.802;2022-11-11T20:42:40;21.60;57.19
74792;SHT30;63319;46.046;17.802;2022-11-11T20:46:12;21.61;57.17
74792;SHT30;63319;46.046;17.802;2022-11-11T20:49:34;21.58;57.21
74792;SHT30;63319;46.046;17.802;2022-11-11T20:52:56;21.56;57.26
74792;SHT30;63319;46.046;17.802;2022-11-11T20:56:18;21.56;57.26
74792;SHT30;63319;46.046;17.802;2022-11-11T20:59:43;21.56;57.08
74792;SHT30;63319;46.046;17.802;2022-11-11T21:03:05;21.54;56.98
74792;SHT30;63319;46.046;17.802;2022-11-11T21:06:31;21.54;57.14
74792;SHT30;63319;46.046;17.802;2022-11-11T21:09:53;21.53;57.35
74792;SHT30;63319;46.046;17.802;2022-11-11T21:13:14;21.53;57.31
74792;SHT30;63319;46.046;17.802;2022-11-11T21:16:36;21.50;57.28
74792;SHT30;63319;46.046;17.802;2022-11-11T21:19:57;21.50;57.35
74792;SHT30;63319;46.046;17.802;2022-11-11T21:23:18;21.50;57.32
74792;SHT30;63319;46.046;17.802;2022-11-11T21:26:40;21.51;57.52
74792;SHT30;63319;46.046;17.802;2022-11-11T21:30:01;21.49;57.07
74792;SHT30;63319;46.046;17.802;2022-11-11T21:33:23;21.47;56.99
74792;SHT30;63319;46.046;17.802;2022-11-11T21:36:44;21.47;57.10
74792;SHT30;63319;46.046;17.802;2022-11-11T21:40:06;21.47;57.35
74792;SHT30;63319;46.046;17.802;2022-11-11T21:43:28;21.46;57.18
74792;SHT30;63319;46.046;17.802;2022-11-11T21:46:49;21.46;56.95
74792;SHT30;63319;46.046;17.802;2022-11-11T21:50:10;21.44;57.25
74792;SHT30;63319;46.046;17.802;2022-11-11T21:53:32;21.44;57.36
74792;SHT30;63319;46.046;17.802;2022-11-11T21:56:54;21.43;57.13
74792;SHT30;63319;46.046;17.802;2022-11-11T22:00:15;21.43;57.34
74792;SHT30;63319;46.046;17.802;2022-11-11T22:03:39;21.42;57.36
74792;SHT30;63319;46.046;17.802;2022-11-11T22:07:00;21.39;57.29
74792;SHT30;63319;46.046;17.802;2022-11-11T22:10:22;21.43;57.04
74792;SHT30;63319;46.046;17.802;2022-11-11T22:13:44;21.39;57.29
74792;SHT30;63319;46.046;17.802;2022-11-11T22:17:05;21.37;57.26
74792;SHT30;63319;46.046;17.802;2022-11-11T22:20:27;21.36;57.38
74792;SHT30;63319;46.046;17.802;2022-11-11T22:23:56;21.30;57.33
74792;SHT30;63319;46.046;17.802;2022-11-11T22:27:17;21.33;57.47
74792;SHT30;63319;46.046;17.802;2022-11-11T22:30:39;21.32;57.25
74792;SHT30;63319;46.046;17.802;2022-11-11T22:34:01;21.30;57.04
74792;SHT30;63319;46.046;17.802;2022-11-11T22:37:23;21.29;57.60
74792;SHT30;63319;46.046;17.802;2022-11-11T22:40:44;21.30;57.35
74792;SHT30;63319;46.046;17.802;2022-11-11T22:44:06;21.30;57.59
74792;SHT30;63319;46.046;17.802;2022-11-11T22:47:28;21.30;57.64
74792;SHT30;63319;46.046;17.802;2022-11-11T22:50:49;21.27;57.64
74792;SHT30;63319;46.046;17.802;2022-11-11T22:54:17;21.25;57.24
74792;SHT30;63319;46.046;17.802;2022-11-11T22:57:39;21.26;57.60
74792;SHT30;63319;46.046;17.802;2022-11-11T23:01:20;21.26;57.09
74792;SHT30;63319;46.046;17.802;2022-11-11T23:04:49;21.26;57.16
74792;SHT30;63319;46.046;17.802;2022-11-11T23:08:11;21.22;57.43
74792;SHT30;63319;46.046;17.802;2022-11-11T23:11:35;21.23;57.53
74792;SHT30;63319;46.046;17.802;2022-11-11T23:14:57;21.22;57.59
74792;SHT30;63319;46.046;17.802;2022-11-11T23:18:18;21.19;57.41
74792;SHT30;63319;46.046;17.802;2022-11-11T23:21:43;21.18;57.13
74792;SHT30;63319;46.046;17.802;2022-11-11T23:25:05;21.19;57.29
74792;SHT30;63319;46.046;17.802;2022-11-11T23:28:27;21.18;57.50
74792;SHT30;63319;46.046;17.802;2022-11-11T23:31:48;21.16;57.36
74792;SHT30;63319;46.046;17.802;2022-11-11T23:35:10;21.13;57.46
74792;SHT30;63319;46.046;17.802;2022-11-11T23:38:31;21.13;57.63
74792;SHT30;63319;46.046;17.802;2022-11-11T23:41:54;21.13;57.32
74792;SHT30;63319;46.046;17.802;2022-11-11T23:45:16;21.13;57.55
74792;SHT30;63319;46.046;17.802;2022-11-11T23:48:37;21.13;57.06
74792;SHT30;63319;46.046;17.802;2022-11-11T23:51:58;21.10;57.50
74792;SHT30;63319;46.046;17.802;2022-11-11T23:55:20;21.10;57.53
74792;SHT30;63319;46.046;17.802;2022-11-11T23:58:41;21.12;57.13
